createdAt,value
2022-09-27T00:02:11.285Z,1.10
2022-09-27T00:05:14.072Z,1.02
2022-09-27T00:08:19.995Z,1.20
2022-09-27T00:11:26.139Z,0.73
2022-09-27T00:14:29.575Z,0.98
2022-09-27T00:17:32.221Z,1.10
2022-09-27T00:20:35.681Z,0.63
2022-09-27T00:23:40.211Z,1.17
2022-09-27T00:26:44.713Z,0.82
2022-09-27T00:29:47.674Z,0.75
2022-09-27T00:32:52.703Z,1.05
2022-09-27T00:35:55.583Z,0.73
2022-09-27T00:39:00.830Z,0.90
2022-09-27T00:42:03.773Z,1.45
2022-09-27T00:45:08.513Z,0.77
2022-09-27T00:48:18.247Z,1.02
2022-09-27T00:51:24.400Z,0.90
2022-09-27T00:54:29.967Z,1.05
2022-09-27T00:57:32.641Z,1.15
2022-09-27T01:00:38.002Z,1.10
2022-09-27T01:03:44.158Z,0.98
2022-09-27T01:06:46.930Z,1.00
2022-09-27T01:09:55.236Z,1.10
2022-09-27T01:13:07.541Z,0.95
2022-09-27T01:16:14.614Z,1.13
2022-09-27T01:19:26.601Z,1.42
2022-09-27T01:22:31.834Z,1.30
2022-09-27T01:25:49.356Z,0.93
2022-09-27T01:29:01.313Z,1.00
2022-09-27T01:32:08.507Z,1.15
2022-09-27T01:35:17.772Z,1.17
2022-09-27T01:38:31.383Z,1.08
2022-09-27T01:41:39.262Z,0.82
2022-09-27T01:45:01.284Z,1.23
2022-09-27T01:48:14.697Z,1.20
2022-09-27T01:51:31.743Z,1.10
2022-09-27T01:54:37.202Z,1.17
2022-09-27T01:57:58.954Z,1.08
2022-09-27T02:01:07.239Z,1.23
2022-09-27T02:04:14.945Z,1.10
2022-09-27T02:07:54.165Z,1.00
2022-09-27T02:11:03.661Z,1.38
2022-09-27T02:14:17.097Z,0.98
2022-09-27T02:17:45.271Z,0.90
2022-09-27T02:20:57.312Z,1.17
2022-09-27T02:24:04.539Z,0.95
2022-09-27T02:27:11.758Z,1.48
2022-09-27T02:30:17.376Z,1.10
2022-09-27T02:33:25.740Z,0.90
2022-09-27T02:36:31.149Z,0.70
2022-09-27T02:39:35.712Z,0.95
2022-09-27T02:42:43.352Z,1.20
2022-09-27T02:45:53.109Z,1.00
2022-09-27T02:49:00.784Z,1.10
2022-09-27T02:52:10.492Z,0.93
2022-09-27T02:55:19.173Z,0.98
2022-09-27T02:58:31.696Z,1.15
2022-09-27T03:02:13.569Z,1.00
2022-09-27T03:05:44.444Z,0.82
2022-09-27T03:08:50.113Z,0.90
2022-09-27T03:11:54.672Z,0.90
2022-09-27T03:14:58.652Z,1.00
2022-09-27T03:18:20.098Z,0.90
2022-09-27T03:21:41.689Z,1.00
2022-09-27T03:24:47.491Z,1.00
2022-09-27T03:27:51.114Z,0.88
2022-09-27T03:30:54.452Z,0.93
2022-09-27T03:34:26.366Z,1.15
2022-09-27T03:37:29.451Z,0.90
2022-09-27T03:40:35.072Z,0.98
2022-09-27T03:43:43.216Z,1.00
2022-09-27T03:46:46.907Z,1.10
2022-09-27T03:49:51.819Z,0.90
2022-09-27T03:52:56.338Z,1.02
2022-09-27T03:56:01.184Z,0.93
2022-09-27T03:59:06.889Z,1.02
2022-09-27T04:02:29.974Z,0.90
2022-09-27T04:06:06.243Z,1.10
2022-09-27T04:09:15.659Z,0.88
2022-09-27T04:12:33.000Z,1.00
2022-09-27T04:15:39.298Z,0.63
2022-09-27T04:19:02.720Z,0.80
2022-09-27T04:22:15.369Z,0.95
2022-09-27T04:25:19.986Z,0.85
2022-09-27T04:28:24.972Z,0.90
2022-09-27T04:31:29.798Z,0.98
2022-09-27T04:35:09.280Z,1.02
2022-09-27T04:38:13.406Z,0.90
2022-09-27T04:41:17.424Z,1.15
2022-09-27T04:44:20.145Z,0.95
2022-09-27T04:47:27.568Z,0.85
2022-09-27T04:50:33.287Z,1.13
2022-09-27T04:53:39.725Z,0.75
2022-09-27T04:56:42.559Z,1.17
2022-09-27T04:59:45.487Z,1.05
2022-09-27T05:02:50.867Z,1.23
2022-09-27T05:06:15.873Z,1.00
2022-09-27T05:09:19.429Z,1.27
2022-09-27T05:12:32.981Z,0.90
2022-09-27T05:15:39.478Z,1.40
2022-09-27T05:19:03.309Z,1.40
2022-09-27T05:22:40.808Z,1.42
2022-09-27T05:25:43.702Z,1.02
2022-09-27T05:28:47.513Z,1.25
2022-09-27T05:31:50.899Z,1.48
2022-09-27T05:34:55.273Z,1.27
2022-09-27T05:38:00.324Z,1.48
2022-09-27T05:41:06.366Z,1.50
2022-09-27T05:44:10.745Z,1.33
2022-09-27T05:47:20.919Z,1.45
2022-09-27T05:50:26.001Z,1.83
2022-09-27T05:53:28.922Z,1.52
2022-09-27T05:56:36.002Z,1.63
2022-09-27T06:00:10.604Z,1.52
2022-09-27T06:03:16.584Z,1.50
2022-09-27T06:06:40.062Z,1.40
2022-09-27T06:09:44.973Z,1.50
2022-09-27T06:12:50.913Z,1.05
2022-09-27T06:16:14.396Z,1.70
2022-09-27T06:19:21.592Z,1.60
2022-09-27T06:22:28.858Z,1.10
2022-09-27T06:25:35.680Z,1.30
2022-09-27T06:28:55.690Z,1.27
2022-09-27T06:31:59.502Z,1.20
2022-09-27T06:35:20.395Z,1.48
2022-09-27T06:38:25.954Z,1.45
2022-09-27T06:41:43.227Z,1.73
2022-09-27T06:45:03.970Z,1.65
2022-09-27T06:48:25.678Z,2.15
2022-09-27T06:51:37.394Z,1.88
2022-09-27T06:54:42.201Z,2.50
2022-09-27T06:58:02.900Z,2.20
2022-09-27T07:01:05.849Z,2.50
2022-09-27T07:04:28.037Z,3.00
2022-09-27T07:07:57.819Z,2.80
2022-09-27T07:11:06.909Z,2.70
2022-09-27T07:14:10.419Z,2.08
2022-09-27T07:17:14.524Z,2.30
2022-09-27T07:20:20.382Z,2.08
2022-09-27T07:23:23.194Z,2.17
2022-09-27T07:26:28.251Z,2.20
2022-09-27T07:29:33.235Z,2.35
2022-09-27T07:32:39.844Z,2.38
2022-09-27T07:35:48.602Z,2.47
2022-09-27T07:38:51.607Z,2.00
2022-09-27T07:41:58.093Z,1.88
2022-09-27T07:45:03.407Z,1.30
2022-09-27T07:48:25.366Z,1.73
2022-09-27T07:51:53.869Z,1.20
2022-09-27T07:55:15.876Z,1.02
2022-09-27T07:58:33.459Z,1.23
2022-09-27T08:01:41.895Z,1.00
2022-09-27T08:04:47.102Z,1.13
2022-09-27T08:07:55.274Z,1.00
2022-09-27T08:10:58.931Z,0.93
2022-09-27T08:14:05.095Z,0.80
2022-09-27T08:17:11.869Z,0.82
2022-09-27T08:20:44.757Z,0.60
2022-09-27T08:24:13.697Z,0.65
2022-09-27T08:27:35.256Z,0.70
2022-09-27T08:30:50.841Z,0.63
2022-09-27T08:33:54.970Z,0.50
2022-09-27T08:36:59.327Z,0.50
2022-09-27T08:40:02.726Z,0.43
2022-09-27T08:43:11.759Z,0.70
2022-09-27T08:46:24.673Z,0.43
2022-09-27T08:49:30.315Z,0.50
2022-09-27T08:52:35.298Z,0.40
2022-09-27T08:55:47.893Z,0.50
2022-09-27T08:58:59.481Z,0.50
2022-09-27T09:02:15.829Z,0.60
2022-09-27T09:05:26.238Z,0.70
2022-09-27T09:08:42.029Z,0.40
2022-09-27T09:12:10.149Z,0.40
2022-09-27T09:15:28.820Z,0.70
2022-09-27T09:18:45.257Z,0.30
2022-09-27T09:21:59.398Z,0.40
2022-09-27T09:25:08.464Z,0.50
2022-09-27T09:28:22.168Z,0.40
2022-09-27T09:31:30.133Z,0.20
2022-09-27T09:34:40.853Z,0.50
2022-09-27T09:37:47.487Z,0.35
2022-09-27T09:40:53.835Z,0.47
2022-09-27T09:43:59.379Z,0.40
2022-09-27T09:47:06.048Z,0.52
2022-09-27T09:50:18.697Z,0.40
2022-09-27T09:53:25.173Z,0.40
2022-09-27T09:56:46.378Z,0.35
2022-09-27T10:00:04.382Z,0.40
2022-09-27T10:03:19.867Z,0.30
2022-09-27T10:06:26.014Z,0.20
2022-09-27T10:09:29.938Z,0.40
2022-09-27T10:13:17.559Z,0.40
2022-09-27T10:16:22.236Z,0.40
2022-09-27T10:19:30.744Z,0.40
2022-09-27T10:22:39.227Z,0.30
2022-09-27T10:25:54.978Z,0.35
2022-09-27T10:29:17.890Z,0.60
2022-09-27T10:32:23.163Z,0.40
2022-09-27T10:35:36.710Z,0.20
2022-09-27T10:38:52.625Z,0.32
2022-09-27T10:42:04.045Z,0.32
2022-09-27T10:45:30.427Z,0.30
2022-09-27T10:48:38.257Z,0.40
2022-09-27T10:51:43.067Z,0.40
2022-09-27T10:54:55.977Z,0.38
2022-09-27T10:57:59.000Z,0.38
2022-09-27T11:01:04.749Z,0.47
2022-09-27T11:04:20.726Z,0.50
2022-09-27T11:07:24.116Z,0.60
2022-09-27T11:10:37.824Z,0.30
2022-09-27T11:13:42.285Z,0.40
2022-09-27T11:16:57.542Z,0.40
2022-09-27T11:20:13.284Z,0.30
2022-09-27T11:23:25.150Z,0.30
2022-09-27T11:26:38.478Z,0.32
2022-09-27T11:29:50.827Z,0.40
2022-09-27T11:33:28.256Z,0.40
2022-09-27T11:36:36.209Z,0.32
2022-09-27T11:39:44.955Z,0.40
2022-09-27T11:42:56.705Z,0.40
2022-09-27T11:46:17.898Z,0.35
2022-09-27T11:49:37.388Z,0.40
2022-09-27T11:52:51.479Z,0.40
2022-09-27T11:56:01.415Z,0.40
2022-09-27T11:59:14.429Z,0.40
2022-09-27T12:02:25.633Z,0.30
2022-09-27T12:05:33.811Z,0.50
2022-09-27T12:08:50.425Z,0.20
2022-09-27T12:11:54.839Z,0.40
2022-09-27T12:15:05.895Z,0.60
2022-09-27T12:18:13.804Z,0.30
2022-09-27T12:21:17.277Z,0.30
2022-09-27T12:24:26.629Z,0.38
2022-09-27T12:27:39.002Z,0.40
2022-09-27T12:30:52.853Z,0.28
2022-09-27T12:34:09.504Z,0.40
2022-09-27T12:37:17.180Z,0.47
2022-09-27T12:40:23.180Z,0.47
2022-09-27T12:43:28.277Z,0.60
2022-09-27T12:46:57.637Z,0.40
2022-09-27T12:50:04.406Z,0.60
2022-09-27T12:53:14.133Z,0.57
2022-09-27T12:56:24.640Z,0.40
2022-09-27T12:59:34.308Z,0.60
2022-09-27T13:03:14.794Z,0.60
2022-09-27T13:06:33.911Z,0.88
2022-09-27T13:09:45.810Z,0.50
2022-09-27T13:12:50.882Z,0.60
2022-09-27T13:16:04.488Z,0.70
2022-09-27T13:19:38.124Z,0.60
2022-09-27T13:22:43.417Z,0.50
2022-09-27T13:26:22.134Z,0.35
2022-09-27T13:29:34.905Z,0.40
2022-09-27T13:33:08.423Z,0.50
2022-09-27T13:36:32.677Z,0.30
2022-09-27T13:39:44.529Z,0.60
2022-09-27T13:43:22.078Z,0.45
2022-09-27T13:46:35.923Z,0.45
2022-09-27T13:49:39.992Z,0.32
2022-09-27T13:52:57.431Z,0.40
2022-09-27T13:56:02.909Z,0.32
2022-09-27T13:59:18.468Z,0.20
2022-09-27T14:02:24.602Z,0.50
2022-09-27T14:05:31.377Z,0.50
2022-09-27T14:08:38.106Z,0.40
2022-09-27T14:11:43.418Z,0.50
2022-09-27T14:14:50.734Z,0.22
2022-09-27T14:17:55.851Z,0.40
2022-09-27T14:21:10.143Z,0.38
2022-09-27T14:24:31.943Z,0.40
2022-09-27T14:27:44.871Z,0.30
2022-09-27T14:31:08.521Z,0.30
2022-09-27T14:34:27.017Z,0.30
2022-09-27T14:37:29.979Z,0.20
2022-09-27T14:40:43.502Z,0.40
2022-09-27T14:43:49.430Z,0.60
2022-09-27T14:47:06.874Z,0.40
2022-09-27T14:50:18.830Z,0.40
2022-09-27T14:53:22.932Z,0.50
2022-09-27T14:56:31.805Z,0.38
2022-09-27T14:59:35.996Z,0.50
2022-09-27T15:02:43.909Z,0.47
2022-09-27T15:05:47.710Z,0.77
2022-09-27T15:08:51.280Z,0.70
2022-09-27T15:11:56.648Z,0.45
2022-09-27T15:14:59.518Z,0.57
2022-09-27T15:18:02.512Z,0.40
2022-09-27T15:21:06.119Z,0.70
2022-09-27T15:24:35.302Z,0.75
2022-09-27T15:27:39.985Z,0.77
2022-09-27T15:30:43.497Z,0.70
2022-09-27T15:33:54.353Z,0.80
2022-09-27T15:37:02.263Z,0.88
2022-09-27T15:40:28.134Z,0.88
2022-09-27T15:43:33.674Z,0.95
2022-09-27T15:46:37.704Z,0.90
2022-09-27T15:49:40.734Z,1.00
2022-09-27T15:52:44.376Z,0.80
2022-09-27T15:55:47.570Z,1.05
2022-09-27T15:58:51.613Z,0.98
2022-09-27T16:01:56.440Z,1.08
2022-09-27T16:05:06.377Z,1.05
2022-09-27T16:08:10.639Z,1.10
2022-09-27T16:11:15.397Z,1.17
2022-09-27T16:14:33.940Z,1.27
2022-09-27T16:17:42.737Z,1.30
2022-09-27T16:20:46.250Z,1.27
2022-09-27T16:23:49.670Z,1.50
2022-09-27T16:27:23.166Z,1.50
2022-09-27T16:30:29.972Z,3.22
2022-09-27T16:33:34.096Z,1.90
2022-09-27T16:36:42.089Z,1.77
2022-09-27T16:39:55.927Z,1.33
2022-09-27T16:43:14.734Z,1.40
2022-09-27T16:46:48.263Z,1.30
2022-09-27T16:54:03.234Z,1.45
2022-09-27T16:57:24.017Z,1.48
2022-09-27T17:10:04.016Z,1.20
2022-09-27T17:13:30.509Z,1.30
2022-09-27T17:17:50.174Z,1.10
2022-09-27T17:21:22.392Z,1.00
2022-09-27T17:24:41.897Z,0.80
2022-09-27T17:27:52.470Z,0.57
2022-09-27T17:30:56.328Z,0.75
2022-09-27T17:33:59.827Z,0.80
2022-09-27T17:37:04.785Z,0.70
2022-09-27T17:40:07.664Z,0.60
2022-09-27T17:43:44.168Z,0.70
2022-09-27T17:47:20.486Z,0.50
2022-09-27T17:50:30.309Z,0.68
2022-09-27T17:53:56.198Z,0.80
2022-09-27T17:57:06.727Z,1.05
2022-09-27T18:00:18.009Z,1.13
2022-09-27T18:03:24.843Z,1.23
2022-09-27T18:06:27.632Z,0.90
2022-09-27T18:09:31.744Z,0.73
2022-09-27T18:12:34.982Z,1.08
2022-09-27T18:15:39.104Z,0.70
2022-09-27T18:18:44.466Z,0.90
2022-09-27T18:21:47.701Z,1.55
2022-09-27T18:24:58.228Z,1.13
2022-09-27T18:28:01.674Z,1.27
2022-09-27T18:31:04.937Z,1.00
2022-09-27T18:34:07.677Z,1.75
2022-09-27T18:37:11.091Z,1.40
2022-09-27T18:40:24.077Z,1.60
2022-09-27T18:43:38.662Z,1.38
2022-09-27T18:46:43.946Z,1.25
2022-09-27T18:49:53.928Z,1.30
2022-09-27T18:52:57.051Z,1.55
2022-09-27T18:56:04.435Z,3.47
2022-09-27T18:59:19.297Z,2.83
2022-09-27T19:02:22.335Z,1.73
2022-09-27T19:05:25.613Z,2.00
2022-09-27T19:08:29.501Z,2.17
2022-09-27T19:11:34.926Z,1.88
2022-09-27T19:14:39.814Z,1.65
2022-09-27T19:17:42.273Z,1.50
2022-09-27T19:20:45.012Z,1.38
2022-09-27T19:23:48.747Z,1.80
2022-09-27T19:26:53.784Z,1.23
2022-09-27T19:29:59.282Z,1.70
2022-09-27T19:33:03.663Z,1.40
2022-09-27T19:36:07.274Z,1.60
2022-09-27T19:39:09.909Z,1.42
2022-09-27T19:42:21.006Z,1.38
2022-09-27T19:45:23.690Z,1.55
2022-09-27T19:48:28.674Z,1.67
2022-09-27T19:51:31.237Z,1.90
2022-09-27T19:54:35.191Z,1.60
2022-09-27T19:57:39.140Z,1.85
2022-09-27T20:01:10.523Z,2.30
2022-09-27T20:04:13.687Z,1.73
2022-09-27T20:07:16.170Z,1.45
2022-09-27T20:10:18.748Z,1.73
2022-09-27T20:13:23.758Z,1.52
2022-09-27T20:16:26.906Z,1.60
2022-09-27T20:19:30.025Z,1.70
2022-09-27T20:22:32.566Z,1.80
2022-09-27T20:25:35.305Z,1.90
2022-09-27T20:29:10.856Z,1.98
2022-09-27T20:32:27.340Z,1.90
2022-09-27T20:35:31.210Z,1.58
2022-09-27T20:38:33.892Z,2.00
2022-09-27T20:41:38.109Z,1.75
2022-09-27T20:44:40.928Z,1.58
2022-09-27T20:47:44.982Z,1.55
2022-09-27T20:50:48.003Z,1.88
2022-09-27T20:53:52.168Z,1.60
2022-09-27T20:56:55.122Z,2.08
2022-09-27T20:59:57.839Z,1.80
2022-09-27T21:03:02.037Z,1.70
2022-09-27T21:06:05.062Z,1.90
2022-09-27T21:09:08.479Z,1.75
2022-09-27T21:12:11.020Z,1.75
2022-09-27T21:15:13.471Z,1.77
2022-09-27T21:18:20.003Z,2.20
2022-09-27T21:21:23.220Z,1.75
2022-09-27T21:24:25.726Z,2.15
2022-09-27T21:27:28.188Z,1.90
2022-09-27T21:30:31.041Z,2.00
2022-09-27T21:33:35.347Z,2.33
2022-09-27T21:36:38.665Z,2.08
2022-09-27T21:39:41.175Z,1.92
2022-09-27T21:42:43.694Z,1.80
2022-09-27T21:46:05.867Z,1.65
2022-09-27T21:53:07.533Z,1.83
2022-09-27T21:56:10.903Z,1.70
2022-09-27T21:59:15.069Z,1.42
2022-09-27T22:02:19.019Z,1.90
2022-09-27T22:05:21.584Z,2.05
2022-09-27T22:08:25.624Z,2.50
2022-09-27T22:11:28.927Z,2.35
2022-09-27T22:14:31.374Z,2.13
2022-09-27T22:17:34.036Z,2.13
2022-09-27T22:20:37.326Z,2.08
2022-09-27T22:23:42.298Z,1.92
2022-09-27T22:26:47.886Z,2.53
2022-09-27T22:29:53.423Z,2.30
2022-09-27T22:32:57.914Z,2.25
2022-09-27T22:36:00.513Z,2.47
2022-09-27T22:39:05.540Z,2.58
2022-09-27T22:42:08.327Z,3.40
2022-09-27T22:45:11.151Z,2.53
2022-09-27T22:48:13.668Z,3.50
2022-09-27T22:51:16.455Z,2.63
2022-09-27T22:54:20.407Z,2.63
2022-09-27T22:57:22.846Z,3.08
2022-09-27T23:00:26.016Z,3.35
2022-09-27T23:03:28.793Z,3.38
2022-09-27T23:06:32.951Z,2.83
2022-09-27T23:09:36.885Z,3.10
2022-09-27T23:12:39.532Z,3.45
2022-09-27T23:15:42.244Z,2.97
2022-09-27T23:18:47.696Z,3.53
2022-09-27T23:21:51.332Z,3.70
2022-09-27T23:24:55.733Z,3.92
2022-09-27T23:27:59.333Z,3.35
2022-09-27T23:31:07.866Z,3.05
2022-09-27T23:34:14.734Z,3.00
2022-09-27T23:37:17.520Z,3.58
2022-09-27T23:40:22.423Z,2.83
2022-09-27T23:43:25.204Z,3.05
2022-09-27T23:46:28.832Z,2.80
2022-09-27T23:49:33.175Z,3.15
2022-09-27T23:52:35.735Z,2.42
2022-09-27T23:55:39.559Z,3.42
2022-09-27T23:58:48.786Z,2.83
